Amagi Galaxy — V7VE9 — position and weather

sailwx.info

Track history (hours):
 
Tides and Currents Weather Stations Pressure Air Temp Water Temp Dewpoint Dewpoint Depression Visibility Wind Speed Wind Dir Waves Ship Positions

Amagi Galaxy

Last reported at 2017-Dec-09 04:45 UTC. Time now 2017-Dec-12 10:29 UTC.
Position N 25°47' E 121°34'.

Length 152 m; draft 6.6 m.

Type: Ship. MMSI: 538004105.

Date/timePositionNaut miles runAvg speedWind from/ knotsBaromVisibWave heightAir tempDewpointWater temp
2017-Dec-09 04:45N 25°47' E 121°34'311.8
2017-Dec-09 04:30N 25°44' E 121°33'6 1.5
2017-Dec-09 00:35N 25°49' E 121°36'211.8
2017-Dec-09 00:24N 25°48' E 121°34'3311.9
2017-Dec-08 21:37N 25°28' E 121°05'1211.2
2017-Dec-08 20:34N 25°19' E 120°57'410.1
2017-Dec-08 20:13N 25°17' E 120°54'2 9.9
2017-Dec-08 20:00N 25°16' E 120°52'24 9.4
2017-Dec-08 17:28N 24°59' E 120°33'  
2017-Dec-04 10:30N 31°23' E 121°34'610.6
2017-Dec-04 09:56N 31°27' E 121°29'511.4
2017-Dec-04 09:30N 31°30' E 121°25'5 9.3
2017-Dec-04 09:00N 31°33' E 121°20'612.9
2017-Dec-04 08:30N 31°38' E 121°15'713.2
2017-Dec-04 08:00N 31°42' E 121°09'611.9
2017-Dec-04 07:30N 31°46' E 121°04'29 9.4
2017-Dec-04 04:24N 32°00' E 120°34'514.0
2017-Dec-04 04:00N 32°02' E 120°28'2 0.1
2017-Dec-03 09:57N 31°60' E 120°27'1 2.5
2017-Dec-03 09:30N 31°59' E 120°27'1 1.0
2017-Dec-03 08:58N 31°58' E 120°27'0 0.0
2017-Dec-03 08:28N 31°58' E 120°27'0 0.0
2017-Dec-03 07:58N 31°58' E 120°27'0 0.0
2017-Dec-03 07:28N 31°58' E 120°27'0 0.0
2017-Dec-03 06:58N 31°58' E 120°27'0 0.0
2017-Dec-03 06:25N 31°58' E 120°27'0 0.0
2017-Dec-03 05:58N 31°58' E 120°27'0 0.0
2017-Dec-03 05:28N 31°58' E 120°27'0 0.0
2017-Dec-03 04:58N 31°58' E 120°27'0 0.0
2017-Dec-03 04:28N 31°58' E 120°27'0 0.0
2017-Dec-03 03:58N 31°58' E 120°27'0 0.0
2017-Dec-03 03:28N 31°58' E 120°27'0 0.0
2017-Dec-03 02:58N 31°58' E 120°27'0 0.0
2017-Dec-03 02:28N 31°58' E 120°27'0 0.0
2017-Dec-03 01:58N 31°58' E 120°27'0 0.0
2017-Dec-03 01:28N 31°58' E 120°27'0 0.0
2017-Dec-03 00:55N 31°58' E 120°27'0 0.0
2017-Dec-03 00:28N 31°58' E 120°27'0 0.0
2017-Dec-02 23:58N 31°58' E 120°27'0 0.0
2017-Dec-02 23:28N 31°58' E 120°27'0 0.0
2017-Dec-02 22:58N 31°58' E 120°27'0 0.0
2017-Dec-02 22:28N 31°58' E 120°27'0 0.0
2017-Dec-02 21:58N 31°58' E 120°27'0 0.0
2017-Dec-02 21:28N 31°58' E 120°27'0 0.0
2017-Dec-02 20:58N 31°58' E 120°27'0 0.0
2017-Dec-02 20:22N 31°58' E 120°27'0 0.0
2017-Dec-02 19:58N 31°58' E 120°27'0 0.0
2017-Dec-02 19:28N 31°58' E 120°27'0 0.0
2017-Dec-02 18:58N 31°58' E 120°27'0 0.0
2017-Dec-02 18:28N 31°58' E 120°27'0 0.0
2017-Dec-02 17:58N 31°58' E 120°27'0 0.0
2017-Dec-02 17:28N 31°58' E 120°27'0 0.0
2017-Dec-02 16:58N 31°58' E 120°27'0 0.0
2017-Dec-02 16:28N 31°58' E 120°27'0 0.0
2017-Dec-02 15:58N 31°58' E 120°27'0 0.0
2017-Dec-02 15:28N 31°58' E 120°27'0 0.0
2017-Dec-02 14:58N 31°58' E 120°27'0 0.0
2017-Dec-02 14:28N 31°58' E 120°27'0 0.0
2017-Dec-02 13:58N 31°58' E 120°27'0 0.0
2017-Dec-02 13:28N 31°58' E 120°27'0 0.0
2017-Dec-02 12:58N 31°58' E 120°27'0 0.0
2017-Dec-02 12:28N 31°58' E 120°27'0 0.0
2017-Dec-02 11:58N 31°58' E 120°27'0 0.0
2017-Dec-02 11:28N 31°58' E 120°27'0 0.0
2017-Dec-02 11:00N 31°58' E 120°27'1 1.8
2017-Dec-02 10:30N 31°58' E 120°26'  
Track history (hours):
 
Tides and Currents Weather Stations Pressure Air Temp Water Temp Dewpoint Dewpoint Depression Visibility Wind Speed Wind Dir Waves Ship Positions

Amagi Galaxy

Last reported at 2017-Dec-09 04:45 UTC. Time now 2017-Dec-12 10:29 UTC.
Position N 25°47' E 121°34'.

Length 152 m; draft 6.6 m.

Type: Ship. MMSI: 538004105.

Date/timePositionNaut miles runAvg speedWind from/ knotsBaromVisibWave heightAir tempDewpointWater temp
2017-Dec-09 04:45N 25°47' E 121°34'311.8
2017-Dec-09 04:30N 25°44' E 121°33'6 1.5
2017-Dec-09 00:35N 25°49' E 121°36'211.8
2017-Dec-09 00:24N 25°48' E 121°34'3311.9
2017-Dec-08 21:37N 25°28' E 121°05'1211.2
2017-Dec-08 20:34N 25°19' E 120°57'410.1
2017-Dec-08 20:13N 25°17' E 120°54'2 9.9
2017-Dec-08 20:00N 25°16' E 120°52'24 9.4
2017-Dec-08 17:28N 24°59' E 120°33'  
2017-Dec-04 10:30N 31°23' E 121°34'610.6
2017-Dec-04 09:56N 31°27' E 121°29'511.4
2017-Dec-04 09:30N 31°30' E 121°25'5 9.3
2017-Dec-04 09:00N 31°33' E 121°20'612.9
2017-Dec-04 08:30N 31°38' E 121°15'713.2
2017-Dec-04 08:00N 31°42' E 121°09'611.9
2017-Dec-04 07:30N 31°46' E 121°04'29 9.4
2017-Dec-04 04:24N 32°00' E 120°34'514.0
2017-Dec-04 04:00N 32°02' E 120°28'2 0.1
2017-Dec-03 09:57N 31°60' E 120°27'1 2.5
2017-Dec-03 09:30N 31°59' E 120°27'1 1.0
2017-Dec-03 08:58N 31°58' E 120°27'0 0.0
2017-Dec-03 08:28N 31°58' E 120°27'0 0.0
2017-Dec-03 07:58N 31°58' E 120°27'0 0.0
2017-Dec-03 07:28N 31°58' E 120°27'0 0.0
2017-Dec-03 06:58N 31°58' E 120°27'0 0.0
2017-Dec-03 06:25N 31°58' E 120°27'0 0.0
2017-Dec-03 05:58N 31°58' E 120°27'0 0.0
2017-Dec-03 05:28N 31°58' E 120°27'0 0.0
2017-Dec-03 04:58N 31°58' E 120°27'0 0.0
2017-Dec-03 04:28N 31°58' E 120°27'0 0.0
2017-Dec-03 03:58N 31°58' E 120°27'0 0.0
2017-Dec-03 03:28N 31°58' E 120°27'0 0.0
2017-Dec-03 02:58N 31°58' E 120°27'0 0.0
2017-Dec-03 02:28N 31°58' E 120°27'0 0.0
2017-Dec-03 01:58N 31°58' E 120°27'0 0.0
2017-Dec-03 01:28N 31°58' E 120°27'0 0.0
2017-Dec-03 00:55N 31°58' E 120°27'0 0.0
2017-Dec-03 00:28N 31°58' E 120°27'0 0.0
2017-Dec-02 23:58N 31°58' E 120°27'0 0.0
2017-Dec-02 23:28N 31°58' E 120°27'0 0.0
2017-Dec-02 22:58N 31°58' E 120°27'0 0.0
2017-Dec-02 22:28N 31°58' E 120°27'0 0.0
2017-Dec-02 21:58N 31°58' E 120°27'0 0.0
2017-Dec-02 21:28N 31°58' E 120°27'0 0.0
2017-Dec-02 20:58N 31°58' E 120°27'0 0.0
2017-Dec-02 20:22N 31°58' E 120°27'0 0.0
2017-Dec-02 19:58N 31°58' E 120°27'0 0.0
2017-Dec-02 19:28N 31°58' E 120°27'0 0.0
2017-Dec-02 18:58N 31°58' E 120°27'0 0.0
2017-Dec-02 18:28N 31°58' E 120°27'0 0.0
2017-Dec-02 17:58N 31°58' E 120°27'0 0.0
2017-Dec-02 17:28N 31°58' E 120°27'0 0.0
2017-Dec-02 16:58N 31°58' E 120°27'0 0.0
2017-Dec-02 16:28N 31°58' E 120°27'0 0.0
2017-Dec-02 15:58N 31°58' E 120°27'0 0.0
2017-Dec-02 15:28N 31°58' E 120°27'0 0.0
2017-Dec-02 14:58N 31°58' E 120°27'0 0.0
2017-Dec-02 14:28N 31°58' E 120°27'0 0.0
2017-Dec-02 13:58N 31°58' E 120°27'0 0.0
2017-Dec-02 13:28N 31°58' E 120°27'0 0.0
2017-Dec-02 12:58N 31°58' E 120°27'0 0.0
2017-Dec-02 12:28N 31°58' E 120°27'0 0.0
2017-Dec-02 11:58N 31°58' E 120°27'0 0.0
2017-Dec-02 11:28N 31°58' E 120°27'0 0.0
2017-Dec-02 11:00N 31°58' E 120°27'1 1.8
2017-Dec-02 10:30N 31°58' E 120°26'  

Dump ship's entire track history